createdAt,value
2023-05-15T00:00:25.405Z,5.15
2023-05-15T00:01:00.594Z,5.43
2023-05-15T00:01:34.366Z,6.22
2023-05-15T00:02:08.163Z,5.45
2023-05-15T00:02:44.908Z,5.72
2023-05-15T00:03:18.977Z,5.82
2023-05-15T00:03:53.482Z,6.43
2023-05-15T00:04:28.669Z,4.97
2023-05-15T00:05:02.899Z,6.72
2023-05-15T00:05:36.799Z,5.72
2023-05-15T00:06:11.311Z,5.18
2023-05-15T00:06:44.396Z,5.60
2023-05-15T00:07:17.781Z,4.95
2023-05-15T00:07:52.525Z,6.65
2023-05-15T00:08:25.318Z,6.22
2023-05-15T00:08:59.905Z,5.53
2023-05-15T00:09:34.319Z,5.45
2023-05-15T00:10:08.008Z,6.13
2023-05-15T00:10:50.485Z,6.00
2023-05-15T00:11:35.352Z,5.78
2023-05-15T00:12:10.457Z,5.18
2023-05-15T00:12:45.816Z,5.53
2023-05-15T00:13:20.626Z,5.22
2023-05-15T00:13:55.501Z,5.13
2023-05-15T00:14:29.706Z,5.78
2023-05-15T00:15:04.503Z,5.30
2023-05-15T00:15:39.862Z,5.40
2023-05-15T00:16:14.811Z,5.25
2023-05-15T00:16:49.688Z,5.68
2023-05-15T00:17:23.677Z,5.78
2023-05-15T00:17:58.855Z,5.30
2023-05-15T00:18:34.478Z,5.07
2023-05-15T00:19:09.098Z,5.35
2023-05-15T00:19:43.898Z,5.53
2023-05-15T00:20:18.498Z,5.32
2023-05-15T00:20:53.526Z,5.60
2023-05-15T00:21:27.892Z,5.85
2023-05-15T00:22:02.658Z,5.35
2023-05-15T00:22:37.335Z,5.82
2023-05-15T00:23:11.097Z,5.60
2023-05-15T00:23:48.209Z,6.05
2023-05-15T00:24:23.039Z,5.28
2023-05-15T00:24:56.127Z,5.65
2023-05-15T00:25:31.251Z,5.65
2023-05-15T00:26:05.130Z,5.60
2023-05-15T00:26:39.446Z,4.70
2023-05-15T00:27:13.288Z,4.90
2023-05-15T00:27:47.944Z,6.10
2023-05-15T00:28:21.470Z,5.38
2023-05-15T00:28:56.732Z,5.30
2023-05-15T00:29:32.182Z,5.40
2023-05-15T00:30:06.182Z,4.72
2023-05-15T00:30:40.205Z,5.53
2023-05-15T00:31:15.565Z,5.38
2023-05-15T00:31:49.457Z,5.10
2023-05-15T00:32:22.462Z,4.20
2023-05-15T00:33:00.012Z,4.97
2023-05-15T00:33:33.671Z,5.03
2023-05-15T00:34:08.402Z,4.75
2023-05-15T00:34:42.463Z,5.15
2023-05-15T00:35:17.620Z,5.07
2023-05-15T00:35:51.411Z,5.13
2023-05-15T00:36:26.576Z,4.60
2023-05-15T00:37:01.876Z,5.05
2023-05-15T00:37:34.880Z,4.75
2023-05-15T00:38:10.963Z,4.97
2023-05-15T00:38:45.060Z,5.18
2023-05-15T00:39:19.158Z,4.65
2023-05-15T00:39:52.185Z,4.93
2023-05-15T00:40:27.198Z,4.75
2023-05-15T00:41:00.871Z,5.38
2023-05-15T00:41:34.687Z,5.35
2023-05-15T00:42:10.687Z,5.05
2023-05-15T00:42:44.543Z,5.50
2023-05-15T00:43:18.062Z,6.30
2023-05-15T00:43:53.860Z,5.05
2023-05-15T00:44:29.424Z,5.30
2023-05-15T00:45:04.395Z,5.80
2023-05-15T00:45:38.847Z,5.28
2023-05-15T00:46:14.670Z,5.88
2023-05-15T00:46:49.900Z,5.30
2023-05-15T00:47:24.778Z,5.93
2023-05-15T00:47:59.630Z,4.90
2023-05-15T00:48:32.685Z,5.78
2023-05-15T00:49:13.470Z,5.82
2023-05-15T00:49:47.710Z,5.88
2023-05-15T00:50:21.580Z,5.72
2023-05-15T00:50:55.952Z,5.85
2023-05-15T00:51:29.576Z,5.50
2023-05-15T00:52:03.937Z,5.43
2023-05-15T00:52:38.327Z,6.85
2023-05-15T00:53:12.060Z,5.97
2023-05-15T00:53:45.659Z,6.40
2023-05-15T00:54:20.088Z,7.22
2023-05-15T00:54:55.286Z,6.82
2023-05-15T00:55:30.305Z,6.22
2023-05-15T00:56:06.047Z,7.15
2023-05-15T00:56:40.072Z,6.90
2023-05-15T00:57:14.082Z,7.22
2023-05-15T00:57:50.089Z,7.63
2023-05-15T00:58:25.287Z,7.15
2023-05-15T00:58:59.912Z,7.20
2023-05-15T00:59:36.699Z,6.70
2023-05-15T01:00:10.585Z,7.40
2023-05-15T01:00:44.534Z,7.10
2023-05-15T01:01:19.149Z,6.22
2023-05-15T01:01:52.106Z,6.78
2023-05-15T01:02:25.575Z,6.40
2023-05-15T01:03:01.109Z,6.50
2023-05-15T01:03:36.668Z,6.40
2023-05-15T01:04:09.872Z,6.72
2023-05-15T01:04:44.728Z,7.22
2023-05-15T01:05:18.632Z,6.70
2023-05-15T01:05:52.447Z,6.00
2023-05-15T01:06:26.600Z,6.97
2023-05-15T01:07:00.483Z,6.88
2023-05-15T01:07:36.136Z,7.78
2023-05-15T01:08:16.278Z,7.93
2023-05-15T01:08:53.351Z,7.68
2023-05-15T01:09:27.317Z,6.90
2023-05-15T01:10:01.329Z,8.50
2023-05-15T01:10:39.490Z,7.75
2023-05-15T01:11:13.544Z,8.27
2023-05-15T01:11:48.860Z,10.43
2023-05-15T01:12:27.671Z,8.43
2023-05-15T01:13:01.009Z,8.15
2023-05-15T01:13:34.566Z,7.85
2023-05-15T01:14:09.351Z,8.73
2023-05-15T01:14:44.604Z,8.27
2023-05-15T01:15:18.991Z,8.27
2023-05-15T01:15:54.841Z,8.15
2023-05-15T01:16:29.174Z,7.82
2023-05-15T01:17:02.871Z,8.52
2023-05-15T01:17:37.299Z,8.15
2023-05-15T01:18:11.444Z,8.18
2023-05-15T01:18:45.931Z,8.55
2023-05-15T01:19:19.921Z,8.50
2023-05-15T01:19:54.985Z,7.70
2023-05-15T01:20:27.999Z,8.45
2023-05-15T01:21:17.450Z,8.63
2023-05-15T01:22:14.751Z,8.55
2023-05-15T01:22:56.518Z,8.60
2023-05-15T01:23:36.647Z,8.93
2023-05-15T01:24:18.425Z,8.88
2023-05-15T01:24:59.808Z,9.27
2023-05-15T01:25:46.626Z,9.93
2023-05-15T01:26:36.692Z,9.40
2023-05-15T01:27:17.771Z,9.35
2023-05-15T01:27:54.011Z,9.05
2023-05-15T01:28:30.014Z,9.63
2023-05-15T01:29:06.443Z,9.45
2023-05-15T01:29:44.301Z,8.70
2023-05-15T01:30:20.652Z,9.43
2023-05-15T01:30:56.186Z,10.20
2023-05-15T01:31:34.008Z,9.20
2023-05-15T01:32:11.807Z,10.65
2023-05-15T01:32:48.177Z,9.65
2023-05-15T01:33:24.725Z,9.55
2023-05-15T01:34:00.226Z,9.70
2023-05-15T01:34:35.927Z,10.30
2023-05-15T01:35:14.401Z,9.02
2023-05-15T01:35:52.840Z,9.57
2023-05-15T01:36:28.102Z,9.68
2023-05-15T01:37:05.645Z,10.30
2023-05-15T01:37:42.503Z,9.40
2023-05-15T01:38:19.682Z,9.23
2023-05-15T01:38:56.631Z,9.52
2023-05-15T01:39:30.721Z,9.32
2023-05-15T01:40:05.393Z,9.32
2023-05-15T01:40:39.970Z,9.30
2023-05-15T01:41:18.123Z,10.00
2023-05-15T01:41:55.889Z,9.63
2023-05-15T01:42:33.176Z,9.10
2023-05-15T01:43:09.665Z,9.82
2023-05-15T01:43:44.481Z,9.68
2023-05-15T01:44:21.247Z,9.73
2023-05-15T01:44:56.843Z,9.65
2023-05-15T01:45:32.931Z,9.80
2023-05-15T01:46:08.313Z,9.73
2023-05-15T01:46:45.749Z,9.63
2023-05-15T01:47:22.774Z,9.50
2023-05-15T01:47:58.504Z,10.18
2023-05-15T01:48:36.853Z,9.27
2023-05-15T01:49:13.139Z,9.48
2023-05-15T01:49:47.888Z,9.80
2023-05-15T01:50:22.360Z,9.85
2023-05-15T01:50:57.134Z,10.70
2023-05-15T01:51:32.893Z,9.88
2023-05-15T01:52:08.842Z,10.65
2023-05-15T01:52:45.643Z,10.43
2023-05-15T01:53:19.982Z,9.85
2023-05-15T01:53:54.546Z,10.07
2023-05-15T01:54:30.297Z,10.20
2023-05-15T01:55:04.909Z,10.02
2023-05-15T01:55:40.702Z,10.60
2023-05-15T01:56:16.381Z,9.50
2023-05-15T01:56:51.452Z,10.18
2023-05-15T01:57:25.302Z,10.73
2023-05-15T01:58:02.650Z,9.20
2023-05-15T01:58:39.007Z,10.52
2023-05-15T01:59:14.063Z,10.20
2023-05-15T01:59:48.802Z,10.77
2023-05-15T02:00:22.816Z,9.93
2023-05-15T02:00:56.835Z,9.98
2023-05-15T02:01:32.114Z,9.68
2023-05-15T02:02:06.824Z,10.13
2023-05-15T02:02:42.355Z,9.63
2023-05-15T02:03:17.842Z,9.73
2023-05-15T02:03:53.676Z,9.80
2023-05-15T02:04:27.344Z,10.15
2023-05-15T02:05:03.285Z,9.35
2023-05-15T02:05:37.817Z,9.95
2023-05-15T02:06:11.639Z,9.48
2023-05-15T02:06:47.534Z,10.43
2023-05-15T02:07:21.401Z,10.45
2023-05-15T02:07:55.584Z,9.70
2023-05-15T02:08:30.664Z,10.07
2023-05-15T02:09:04.730Z,9.43
2023-05-15T02:09:38.946Z,9.90
2023-05-15T02:10:15.343Z,10.48
2023-05-15T02:10:54.407Z,10.65
2023-05-15T02:11:27.788Z,10.73
2023-05-15T02:12:03.105Z,9.65
2023-05-15T02:12:36.970Z,9.90
2023-05-15T02:13:12.804Z,10.15
2023-05-15T02:13:47.748Z,9.55
2023-05-15T02:14:24.963Z,10.82
2023-05-15T02:14:59.416Z,9.85
2023-05-15T02:15:34.122Z,9.73
2023-05-15T02:16:09.005Z,9.82
2023-05-15T02:16:41.937Z,9.52
2023-05-15T02:17:16.674Z,9.60
2023-05-15T02:17:53.253Z,9.45
2023-05-15T02:18:26.862Z,10.13
2023-05-15T02:19:03.277Z,9.00
2023-05-15T02:19:37.287Z,8.82
2023-05-15T02:20:14.983Z,9.05
2023-05-15T02:20:49.652Z,10.18
2023-05-15T02:21:23.912Z,9.88
2023-05-15T02:21:57.420Z,10.73
2023-05-15T02:22:32.019Z,9.27
2023-05-15T02:23:07.682Z,9.02
2023-05-15T02:23:41.836Z,9.30
2023-05-15T02:24:16.194Z,10.10
2023-05-15T02:24:51.644Z,9.02
2023-05-15T02:25:30.186Z,9.43
2023-05-15T02:26:29.523Z,9.30
2023-05-15T02:27:06.846Z,9.25
2023-05-15T02:27:44.652Z,8.73
2023-05-15T02:28:24.986Z,8.95
2023-05-15T02:29:03.753Z,8.98
2023-05-15T02:29:40.732Z,9.02
2023-05-15T02:30:22.562Z,9.10
2023-05-15T02:30:57.463Z,9.35
2023-05-15T02:31:33.025Z,8.55
2023-05-15T02:32:11.819Z,10.20
2023-05-15T02:32:51.553Z,15.45
2023-05-15T02:33:27.683Z,12.50
2023-05-15T02:34:14.348Z,9.23
2023-05-15T02:34:53.598Z,9.30
2023-05-15T02:35:32.231Z,9.38
2023-05-15T02:36:08.893Z,9.00
2023-05-15T02:36:43.179Z,9.23
2023-05-15T02:37:18.300Z,28.00
2023-05-15T02:37:53.543Z,13.00
2023-05-15T02:38:31.033Z,13.60
2023-05-15T02:39:05.924Z,37.58
2023-05-15T02:39:40.027Z,20.33
2023-05-15T02:40:17.042Z,18.38
2023-05-15T02:40:52.438Z,8.57
2023-05-15T02:41:26.924Z,9.02
2023-05-15T02:42:01.668Z,9.50
2023-05-15T02:42:36.374Z,8.18
2023-05-15T02:43:11.353Z,9.93
2023-05-15T02:43:49.629Z,8.95
2023-05-15T02:44:24.744Z,8.70
2023-05-15T02:44:59.090Z,8.70
2023-05-15T02:45:34.036Z,8.80
2023-05-15T02:46:08.754Z,7.88
2023-05-15T02:46:42.490Z,8.23
2023-05-15T02:47:16.162Z,8.68
2023-05-15T02:47:51.205Z,7.80
2023-05-15T02:48:25.714Z,7.88
2023-05-15T02:49:00.034Z,8.07
2023-05-15T02:49:34.854Z,8.13
2023-05-15T02:50:08.452Z,9.07
2023-05-15T02:50:42.459Z,8.40
2023-05-15T02:51:17.475Z,8.68
2023-05-15T02:51:51.486Z,7.80
2023-05-15T02:52:24.793Z,8.93
2023-05-15T02:53:02.777Z,8.40
2023-05-15T02:53:41.855Z,8.50
2023-05-15T02:54:16.860Z,8.50
2023-05-15T02:54:51.573Z,8.70
2023-05-15T02:55:26.127Z,7.50
2023-05-15T02:56:02.681Z,8.57
2023-05-15T02:56:36.083Z,8.30
2023-05-15T02:57:11.868Z,8.40
2023-05-15T02:57:45.933Z,8.82
2023-05-15T02:58:20.773Z,8.00
2023-05-15T02:58:56.717Z,7.93
2023-05-15T02:59:31.080Z,8.10
2023-05-15T03:00:07.303Z,8.38
2023-05-15T03:00:42.236Z,8.65
2023-05-15T03:01:16.404Z,8.35
2023-05-15T03:01:50.592Z,7.35
2023-05-15T03:02:25.431Z,8.30
2023-05-15T03:03:06.105Z,7.78
2023-05-15T03:03:41.103Z,7.97
2023-05-15T03:04:14.981Z,8.63
2023-05-15T03:04:49.071Z,7.38
2023-05-15T03:05:23.860Z,7.72
2023-05-15T03:05:57.908Z,7.63
2023-05-15T03:06:32.357Z,8.30
2023-05-15T03:07:07.333Z,8.20
2023-05-15T03:07:41.661Z,8.48
2023-05-15T03:08:14.719Z,8.02
2023-05-15T03:08:50.786Z,8.15
2023-05-15T03:09:23.728Z,9.45
2023-05-15T03:09:56.847Z,10.50
2023-05-15T03:10:30.816Z,11.30
2023-05-15T03:11:05.425Z,10.10
2023-05-15T03:11:39.586Z,14.25
2023-05-15T03:12:14.120Z,18.75
2023-05-15T03:12:47.319Z,15.70
2023-05-15T03:13:20.945Z,9.65
2023-05-15T03:13:57.605Z,7.20
2023-05-15T03:14:32.009Z,7.95
2023-05-15T03:15:05.490Z,8.23
2023-05-15T03:15:40.797Z,8.10
2023-05-15T03:16:14.388Z,8.40
2023-05-15T03:16:48.500Z,7.82
2023-05-15T03:17:22.936Z,8.73
2023-05-15T03:17:56.912Z,7.93
2023-05-15T03:18:30.366Z,8.60
2023-05-15T03:19:05.561Z,8.52
2023-05-15T03:19:39.881Z,8.60
2023-05-15T03:20:14.670Z,8.35
2023-05-15T03:20:49.863Z,8.63
2023-05-15T03:21:24.821Z,8.68
2023-05-15T03:21:58.171Z,8.90
2023-05-15T03:22:32.880Z,8.52
2023-05-15T03:23:06.389Z,8.23
2023-05-15T03:23:40.544Z,8.63
2023-05-15T03:24:15.981Z,8.73
2023-05-15T03:24:49.209Z,9.02
2023-05-15T03:25:22.744Z,8.20
2023-05-15T03:25:57.769Z,8.52
2023-05-15T03:26:31.499Z,9.07
2023-05-15T03:27:05.402Z,8.07
2023-05-15T03:27:40.307Z,8.18
2023-05-15T03:28:13.197Z,8.07
2023-05-15T03:28:46.946Z,8.07
2023-05-15T03:29:23.328Z,25.85
2023-05-15T03:29:57.103Z,8.93
2023-05-15T03:30:31.477Z,7.70
2023-05-15T03:31:08.089Z,17.42
2023-05-15T03:31:41.577Z,13.25
2023-05-15T03:32:14.974Z,7.60
2023-05-15T03:32:49.805Z,7.53
2023-05-15T03:33:22.956Z,7.03
2023-05-15T03:33:56.595Z,8.13
2023-05-15T03:34:30.769Z,7.70
2023-05-15T03:35:05.376Z,7.78
2023-05-15T03:35:39.013Z,6.97
2023-05-15T03:36:13.315Z,6.75
2023-05-15T03:36:46.528Z,7.10
2023-05-15T03:37:20.495Z,7.78
2023-05-15T03:37:57.499Z,7.07
2023-05-15T03:38:30.795Z,7.13
2023-05-15T03:39:04.900Z,7.18
2023-05-15T03:39:39.775Z,7.65
2023-05-15T03:40:13.458Z,6.75
2023-05-15T03:40:50.845Z,8.00
2023-05-15T03:41:26.779Z,7.57
2023-05-15T03:42:00.371Z,7.05
2023-05-15T03:42:34.608Z,7.38
2023-05-15T03:43:09.266Z,7.03
2023-05-15T03:43:42.461Z,7.78
2023-05-15T03:44:17.041Z,7.75
2023-05-15T03:44:53.678Z,7.85
2023-05-15T03:45:28.076Z,7.47
2023-05-15T03:46:01.866Z,7.53
2023-05-15T03:46:37.285Z,7.43
2023-05-15T03:47:11.733Z,7.18
2023-05-15T03:47:46.010Z,7.18
2023-05-15T03:48:21.379Z,7.60
2023-05-15T03:48:56.640Z,7.18
2023-05-15T03:49:30.837Z,6.68
2023-05-15T03:50:04.409Z,6.65
2023-05-15T03:50:40.516Z,6.15
2023-05-15T03:51:15.219Z,6.50
2023-05-15T03:51:49.650Z,6.65
2023-05-15T03:52:22.522Z,6.53
2023-05-15T03:52:57.275Z,6.68
2023-05-15T03:53:30.836Z,6.15
2023-05-15T03:54:05.849Z,5.82
2023-05-15T03:54:41.197Z,6.30
2023-05-15T03:55:15.689Z,6.07
2023-05-15T03:55:49.867Z,6.18
2023-05-15T03:56:23.728Z,6.35
2023-05-15T03:56:57.700Z,5.97
2023-05-15T03:57:31.537Z,5.75
2023-05-15T03:58:06.110Z,6.45
2023-05-15T03:58:41.104Z,5.93
2023-05-15T03:59:14.412Z,5.90
2023-05-15T03:59:49.535Z,6.50
2023-05-15T04:00:26.306Z,6.18
2023-05-15T04:00:59.847Z,6.05
2023-05-15T04:01:44.062Z,5.57
2023-05-15T04:02:24.908Z,5.10
2023-05-15T04:03:00.667Z,6.00
2023-05-15T04:03:33.671Z,5.50
2023-05-15T04:04:07.007Z,5.60
2023-05-15T04:04:41.514Z,5.38
2023-05-15T04:05:15.894Z,5.53
2023-05-15T04:05:50.352Z,6.15
2023-05-15T04:06:23.615Z,5.15
2023-05-15T04:06:57.814Z,5.75
2023-05-15T04:07:33.462Z,6.20
2023-05-15T04:08:07.272Z,5.47
2023-05-15T04:08:41.684Z,5.45
2023-05-15T04:09:15.690Z,5.45
2023-05-15T04:09:49.493Z,5.65
2023-05-15T04:10:23.992Z,5.68
2023-05-15T04:10:57.488Z,5.82
2023-05-15T04:11:32.196Z,5.85
2023-05-15T04:12:09.229Z,5.70
2023-05-15T04:12:42.468Z,5.60
2023-05-15T04:13:15.862Z,5.80
2023-05-15T04:13:50.852Z,4.97
2023-05-15T04:14:24.880Z,5.45
2023-05-15T04:15:13.369Z,4.78
2023-05-15T04:15:49.429Z,5.55
2023-05-15T04:16:30.383Z,5.68
2023-05-15T04:17:05.027Z,5.72
2023-05-15T04:17:38.920Z,5.60
2023-05-15T04:18:13.067Z,6.47
2023-05-15T04:18:47.855Z,7.18
2023-05-15T04:19:22.546Z,7.45
2023-05-15T04:19:56.606Z,6.03
2023-05-15T04:20:30.647Z,5.07
2023-05-15T04:21:05.209Z,5.25
2023-05-15T04:21:39.028Z,5.60
2023-05-15T04:22:13.840Z,5.65
2023-05-15T04:22:47.640Z,5.45
2023-05-15T04:23:21.253Z,5.43
2023-05-15T04:23:55.651Z,5.85
2023-05-15T04:24:29.778Z,5.60
2023-05-15T04:25:03.447Z,5.68
2023-05-15T04:25:39.059Z,5.60
2023-05-15T04:26:13.163Z,5.28
2023-05-15T04:26:47.831Z,5.32
2023-05-15T04:27:23.138Z,5.70
2023-05-15T04:27:57.239Z,5.22
2023-05-15T04:28:33.170Z,5.85
2023-05-15T04:29:07.432Z,4.95
2023-05-15T04:29:40.707Z,5.05
2023-05-15T04:30:15.819Z,5.93
2023-05-15T04:30:50.898Z,5.10
2023-05-15T04:31:25.462Z,4.82
2023-05-15T04:32:01.109Z,5.10
2023-05-15T04:32:35.045Z,4.47
2023-05-15T04:33:08.954Z,5.53
2023-05-15T04:33:44.179Z,5.72
2023-05-15T04:34:18.161Z,5.43
2023-05-15T04:34:51.483Z,5.00
2023-05-15T04:35:26.355Z,5.80
2023-05-15T04:36:00.803Z,5.25
2023-05-15T04:36:34.221Z,5.45
2023-05-15T04:37:09.016Z,4.97
2023-05-15T04:37:43.881Z,4.95
2023-05-15T04:38:17.692Z,5.10
2023-05-15T04:38:53.804Z,5.07
2023-05-15T04:39:27.285Z,5.75
2023-05-15T04:40:00.775Z,4.95
2023-05-15T04:40:36.205Z,4.80
2023-05-15T04:41:09.461Z,5.03
2023-05-15T04:41:43.742Z,4.93
2023-05-15T04:42:18.698Z,4.70
2023-05-15T04:42:54.067Z,4.38
2023-05-15T04:43:28.381Z,3.95
2023-05-15T04:44:04.175Z,4.38
2023-05-15T04:44:38.354Z,4.43
2023-05-15T04:45:12.856Z,4.25
2023-05-15T04:45:47.669Z,4.30
2023-05-15T04:46:22.770Z,4.30
2023-05-15T04:46:56.913Z,3.78
2023-05-15T04:47:31.527Z,3.72
2023-05-15T04:48:05.801Z,3.25
2023-05-15T04:48:39.757Z,3.22
2023-05-15T04:49:14.627Z,3.10
2023-05-15T04:49:50.775Z,3.40
2023-05-15T04:50:25.436Z,3.20
2023-05-15T04:51:00.763Z,3.38
2023-05-15T04:51:34.869Z,3.50
2023-05-15T04:52:08.284Z,3.08
2023-05-15T04:52:43.766Z,3.15
2023-05-15T04:53:17.731Z,3.05
2023-05-15T04:53:54.721Z,3.10
2023-05-15T04:54:28.896Z,3.40
2023-05-15T04:55:02.528Z,2.75
2023-05-15T04:55:37.734Z,2.40
2023-05-15T04:56:11.578Z,2.28
2023-05-15T04:56:46.612Z,2.35
2023-05-15T04:57:21.615Z,2.65
2023-05-15T04:57:55.619Z,2.75
2023-05-15T04:58:29.993Z,2.67
2023-05-15T04:59:04.834Z,1.80
2023-05-15T04:59:39.545Z,2.15
2023-05-15T05:00:14.721Z,1.98
2023-05-15T05:00:49.199Z,2.42
2023-05-15T05:01:24.780Z,2.15
2023-05-15T05:01:58.590Z,2.50
2023-05-15T05:02:33.272Z,2.28
2023-05-15T05:03:07.975Z,2.25
2023-05-15T05:03:41.626Z,2.50
2023-05-15T05:04:20.069Z,2.50
2023-05-15T05:04:54.279Z,2.35
2023-05-15T05:05:29.342Z,2.50
2023-05-15T05:06:03.404Z,2.50
2023-05-15T05:06:38.237Z,2.03
2023-05-15T05:07:14.058Z,2.20
2023-05-15T05:07:47.933Z,2.30
2023-05-15T05:08:23.691Z,1.90
2023-05-15T05:08:57.109Z,2.33
2023-05-15T05:09:31.542Z,2.40
2023-05-15T05:10:07.447Z,2.70
2023-05-15T05:10:41.512Z,2.13
2023-05-15T05:11:15.880Z,2.88
2023-05-15T05:11:51.891Z,2.30
2023-05-15T05:12:25.992Z,2.20
2023-05-15T05:13:04.169Z,2.30
2023-05-15T05:13:37.345Z,2.42
2023-05-15T05:14:10.697Z,2.10
2023-05-15T05:14:45.543Z,2.60
2023-05-15T05:15:19.872Z,2.20
2023-05-15T05:15:53.785Z,2.55
2023-05-15T05:16:29.167Z,2.35
2023-05-15T05:17:01.967Z,2.10
2023-05-15T05:17:35.721Z,2.10
2023-05-15T05:18:10.201Z,2.15
2023-05-15T05:18:44.214Z,2.45
2023-05-15T05:19:18.186Z,1.92
2023-05-15T05:19:52.596Z,2.30
2023-05-15T05:20:27.098Z,2.75
2023-05-15T05:21:00.687Z,2.08
2023-05-15T05:21:35.656Z,2.42
2023-05-15T05:22:10.193Z,2.20
2023-05-15T05:22:44.600Z,2.00
2023-05-15T05:23:18.433Z,1.55
2023-05-15T05:23:54.489Z,2.03
2023-05-15T05:24:29.116Z,2.20
2023-05-15T05:25:02.319Z,2.10
2023-05-15T05:25:37.831Z,2.25
2023-05-15T05:26:12.805Z,1.88
2023-05-15T05:26:46.255Z,2.08
2023-05-15T05:27:22.056Z,2.13
2023-05-15T05:27:56.030Z,1.83
2023-05-15T05:28:29.617Z,1.92
2023-05-15T05:29:03.242Z,2.03
2023-05-15T05:29:37.977Z,1.95
2023-05-15T05:30:13.141Z,2.25
2023-05-15T05:30:47.375Z,1.83
2023-05-15T05:31:22.124Z,2.08
2023-05-15T05:31:57.948Z,1.80
2023-05-15T05:32:32.942Z,2.35
2023-05-15T05:33:08.496Z,2.15
2023-05-15T05:33:41.795Z,2.40
2023-05-15T05:34:15.429Z,1.90
2023-05-15T05:34:50.966Z,2.20
2023-05-15T05:35:24.926Z,1.92
2023-05-15T05:35:58.695Z,1.58
2023-05-15T05:36:33.634Z,1.80
2023-05-15T05:37:07.580Z,1.30
2023-05-15T05:37:41.757Z,1.73
2023-05-15T05:38:15.489Z,1.30
2023-05-15T05:38:50.392Z,1.80
2023-05-15T05:39:25.173Z,1.40
2023-05-15T05:39:59.254Z,2.00
2023-05-15T05:40:32.924Z,1.80
2023-05-15T05:41:07.363Z,1.80
2023-05-15T05:41:41.034Z,1.60
2023-05-15T05:42:14.570Z,1.58
2023-05-15T05:42:49.227Z,1.60
2023-05-15T05:43:24.077Z,1.35
2023-05-15T05:43:56.678Z,1.45
2023-05-15T05:44:30.643Z,1.40
2023-05-15T05:45:03.761Z,2.30
2023-05-15T05:45:37.686Z,1.88
2023-05-15T05:46:12.371Z,1.73
2023-05-15T05:46:46.701Z,1.80
2023-05-15T05:47:21.781Z,1.40
2023-05-15T05:47:59.267Z,1.70
2023-05-15T05:48:33.239Z,1.52
2023-05-15T05:49:07.637Z,1.50
2023-05-15T05:49:41.401Z,1.63
2023-05-15T05:50:14.787Z,1.38
2023-05-15T05:50:49.321Z,1.40
2023-05-15T05:51:23.409Z,1.05
2023-05-15T05:51:57.279Z,1.45
2023-05-15T05:52:32.279Z,1.30
2023-05-15T05:53:05.553Z,1.38
2023-05-15T05:53:39.711Z,1.38
2023-05-15T05:54:15.057Z,1.52
2023-05-15T05:54:49.774Z,1.48
2023-05-15T05:55:23.899Z,1.33
2023-05-15T05:55:58.207Z,1.42
2023-05-15T05:56:31.813Z,1.13
2023-05-15T05:57:08.171Z,1.50
2023-05-15T05:57:42.113Z,1.38
2023-05-15T05:58:24.841Z,1.60
2023-05-15T05:59:02.111Z,1.23
2023-05-15T05:59:36.042Z,1.70
2023-05-15T06:00:11.332Z,3.03
2023-05-15T06:00:46.133Z,1.40
2023-05-15T06:01:20.191Z,1.55
2023-05-15T06:01:57.515Z,1.30
2023-05-15T06:02:32.477Z,1.23
2023-05-15T06:03:05.484Z,1.30
2023-05-15T06:03:41.882Z,1.48
2023-05-15T06:04:16.869Z,1.33
2023-05-15T06:04:53.516Z,1.00
2023-05-15T06:05:27.485Z,0.90
2023-05-15T06:06:00.914Z,0.95
2023-05-15T06:06:37.698Z,1.00
2023-05-15T06:07:12.251Z,1.30
2023-05-15T06:07:46.132Z,1.10
2023-05-15T06:08:20.916Z,0.93
2023-05-15T06:08:56.502Z,0.70
2023-05-15T06:09:31.797Z,1.00
2023-05-15T06:10:10.018Z,1.00
2023-05-15T06:10:45.494Z,0.90
2023-05-15T06:11:19.064Z,0.77
2023-05-15T06:11:54.880Z,0.68
2023-05-15T06:12:28.979Z,1.00
2023-05-15T06:13:02.400Z,1.40
2023-05-15T06:13:37.996Z,0.90
2023-05-15T06:14:11.487Z,0.90
2023-05-15T06:14:44.588Z,1.10
2023-05-15T06:15:20.907Z,0.88
2023-05-15T06:15:54.182Z,1.00
2023-05-15T06:16:28.287Z,1.92
2023-05-15T06:17:03.267Z,1.60
2023-05-15T06:17:37.804Z,1.05
2023-05-15T06:18:12.553Z,1.30
2023-05-15T06:18:45.916Z,1.10
2023-05-15T06:19:22.402Z,1.02
2023-05-15T06:19:57.555Z,1.55
2023-05-15T06:20:31.145Z,1.65
2023-05-15T06:21:07.010Z,2.03
2023-05-15T06:21:39.595Z,1.50
2023-05-15T06:22:13.598Z,1.27
2023-05-15T06:22:49.314Z,1.42
2023-05-15T06:23:24.327Z,1.15
2023-05-15T06:23:58.251Z,1.20
2023-05-15T06:24:32.271Z,1.20
2023-05-15T06:25:07.948Z,1.10
2023-05-15T06:25:43.193Z,1.30
2023-05-15T06:26:18.639Z,1.20
2023-05-15T06:26:52.610Z,1.35
2023-05-15T06:27:28.278Z,1.40
2023-05-15T06:28:01.649Z,1.55
2023-05-15T06:28:35.795Z,1.20
2023-05-15T06:29:11.119Z,1.48
2023-05-15T06:29:46.153Z,1.50
2023-05-15T06:30:19.670Z,1.20
2023-05-15T06:30:55.148Z,1.48
2023-05-15T06:31:29.379Z,1.38
2023-05-15T06:32:03.636Z,1.33
2023-05-15T06:32:44.859Z,1.58
2023-05-15T06:33:18.420Z,1.30
2023-05-15T06:33:53.717Z,2.28
2023-05-15T06:34:28.034Z,1.33
2023-05-15T06:35:01.788Z,1.40
2023-05-15T06:35:36.471Z,0.95
2023-05-15T06:36:12.163Z,0.93
2023-05-15T06:36:45.076Z,1.23
2023-05-15T06:37:18.899Z,1.10
2023-05-15T06:37:54.325Z,0.88
2023-05-15T06:38:27.944Z,0.90
2023-05-15T06:39:03.535Z,0.98
2023-05-15T06:39:37.823Z,1.00
2023-05-15T06:40:13.574Z,1.27
2023-05-15T06:40:48.020Z,0.85
2023-05-15T06:41:22.959Z,0.82
2023-05-15T06:42:01.917Z,1.08
2023-05-15T06:42:38.232Z,0.85
2023-05-15T06:43:11.552Z,1.17
2023-05-15T06:43:46.686Z,0.80
2023-05-15T06:44:20.756Z,0.77
2023-05-15T06:44:53.938Z,0.90
2023-05-15T06:45:29.211Z,1.20
2023-05-15T06:46:02.628Z,1.27
2023-05-15T06:46:37.988Z,1.00
2023-05-15T06:47:13.900Z,1.20
2023-05-15T06:47:49.138Z,1.30
2023-05-15T06:48:24.106Z,0.95
2023-05-15T06:48:57.712Z,0.93
2023-05-15T06:49:32.763Z,1.10
2023-05-15T06:50:10.246Z,1.25
2023-05-15T06:50:43.626Z,0.98
2023-05-15T06:51:18.014Z,1.10
2023-05-15T06:51:52.442Z,0.93
2023-05-15T06:52:25.357Z,0.88
2023-05-15T06:53:01.312Z,1.25
2023-05-15T06:53:34.154Z,1.13
2023-05-15T06:54:08.557Z,0.73
2023-05-15T06:54:44.588Z,0.80
2023-05-15T06:55:18.257Z,0.60
2023-05-15T06:55:54.183Z,0.80
2023-05-15T06:56:29.295Z,0.80
2023-05-15T06:57:02.785Z,1.00
2023-05-15T06:57:36.729Z,0.68
2023-05-15T06:58:11.546Z,0.85
2023-05-15T06:58:45.004Z,1.00
2023-05-15T06:59:18.411Z,1.27
2023-05-15T06:59:54.247Z,1.10
2023-05-15T07:00:29.555Z,0.90
2023-05-15T07:01:04.028Z,0.80
2023-05-15T07:01:38.542Z,0.68
2023-05-15T07:02:12.791Z,0.68
2023-05-15T07:02:49.119Z,0.85
2023-05-15T07:03:25.023Z,0.70
2023-05-15T07:03:59.601Z,0.77
2023-05-15T07:04:33.960Z,0.90
2023-05-15T07:05:09.032Z,0.93
2023-05-15T07:05:44.388Z,0.60
2023-05-15T07:06:18.762Z,0.80
2023-05-15T07:06:52.461Z,0.70
2023-05-15T07:07:26.867Z,0.80
2023-05-15T07:08:00.522Z,0.82
2023-05-15T07:08:35.421Z,0.70
2023-05-15T07:09:09.948Z,0.80
2023-05-15T07:09:48.899Z,0.98
2023-05-15T07:10:22.307Z,1.00
2023-05-15T07:10:57.991Z,0.80
2023-05-15T07:11:34.210Z,0.98
2023-05-15T07:12:11.085Z,0.90
2023-05-15T07:12:45.561Z,1.10
2023-05-15T07:13:20.104Z,0.95
2023-05-15T07:13:55.653Z,0.77
2023-05-15T07:14:29.508Z,0.80
2023-05-15T07:15:03.521Z,0.80
2023-05-15T07:15:39.130Z,1.00
2023-05-15T07:16:13.097Z,0.90
2023-05-15T07:16:47.835Z,0.80
2023-05-15T07:17:22.460Z,0.75
2023-05-15T07:17:58.393Z,1.30
2023-05-15T07:18:34.041Z,0.95
2023-05-15T07:19:10.131Z,0.98
2023-05-15T07:19:45.357Z,0.80
2023-05-15T07:20:19.798Z,1.10
2023-05-15T07:20:53.738Z,2.60
2023-05-15T07:21:27.764Z,1.08
2023-05-15T07:22:03.430Z,1.00
2023-05-15T07:22:44.441Z,0.90
2023-05-15T07:23:23.130Z,1.00
2023-05-15T07:23:56.925Z,0.80
2023-05-15T07:24:31.890Z,0.90
2023-05-15T07:25:08.584Z,0.70
2023-05-15T07:25:45.263Z,0.73
2023-05-15T07:26:28.696Z,0.70
2023-05-15T07:27:08.320Z,0.75
2023-05-15T07:27:43.551Z,0.82
2023-05-15T07:28:17.050Z,0.73
2023-05-15T07:28:52.357Z,0.73
2023-05-15T07:29:28.032Z,0.80
2023-05-15T07:30:02.694Z,0.90
2023-05-15T07:30:36.685Z,0.85
2023-05-15T07:31:11.311Z,0.85
2023-05-15T07:31:45.041Z,1.02
2023-05-15T07:32:20.757Z,0.80
2023-05-15T07:32:55.057Z,0.90
2023-05-15T07:33:30.512Z,0.90
2023-05-15T07:34:06.289Z,0.82
2023-05-15T07:34:39.704Z,0.90
2023-05-15T07:35:14.961Z,0.98
2023-05-15T07:35:48.335Z,0.70
2023-05-15T07:36:22.752Z,0.90
2023-05-15T07:36:57.877Z,0.70
2023-05-15T07:37:31.863Z,0.82
2023-05-15T07:38:05.069Z,0.60
2023-05-15T07:38:39.836Z,0.70
2023-05-15T07:39:14.500Z,0.80
2023-05-15T07:39:49.528Z,0.80
2023-05-15T07:40:23.395Z,1.00
2023-05-15T07:40:56.443Z,0.90
2023-05-15T07:41:33.919Z,0.80
2023-05-15T07:42:09.200Z,0.80
2023-05-15T07:42:45.153Z,0.82
2023-05-15T07:43:19.307Z,1.00
2023-05-15T07:43:54.664Z,0.90
2023-05-15T07:44:29.926Z,0.93
2023-05-15T07:45:05.222Z,1.20
2023-05-15T07:45:39.872Z,0.75
2023-05-15T07:46:15.439Z,0.80